Time;durP1;ratioP1;P1;durP2;ratioP2;P2;SDS_P1;SDS_P2;PMS_P1;PMS_P2;Temp;Humidity;BMP_temperature;BMP_pressure;BME280_temperature;BME280_humidity;BME280_pressure;Samples;Min_cycle;Max_cycle;Signal;HPM_P1;HPM_P2
2021/07/15 00:01:58;;;;;;;2.40;1.30;;;20.80;99.90;;;;;;6162785;23;20499;-78
2021/07/15 00:04:27;;;;;;;2.67;1.40;;;20.80;99.90;;;;;;6199114;23;20384;-78
2021/07/15 00:06:55;;;;;;;1.93;1.43;;;20.80;99.90;;;;;;6162587;23;20975;-78
2021/07/15 00:09:25;;;;;;;1.50;1.10;;;20.80;99.90;;;;;;6163232;23;20474;-78
2021/07/15 00:11:55;;;;;;;4.03;1.37;;;20.70;99.90;;;;;;6162039;23;20415;-78
2021/07/15 00:14:25;;;;;;;3.07;1.20;;;20.70;99.90;;;;;;6162073;23;20474;-79
2021/07/15 00:16:57;;;;;;;2.70;1.47;;;20.70;99.90;;;;;;6161396;23;20527;-78
2021/07/15 00:19:29;;;;;;;1.70;1.37;;;20.70;99.90;;;;;;6197131;23;20685;-79
2021/07/15 00:21:57;;;;;;;3.60;1.50;;;20.70;99.90;;;;;;6161173;23;20408;-79
2021/07/15 00:24:30;;;;;;;3.73;1.40;;;20.60;99.90;;;;;;6197431;23;20479;-78
2021/07/15 00:27:01;;;;;;;1.90;1.70;;;20.60;99.90;;;;;;6161698;23;20462;-79
2021/07/15 00:29:29;;;;;;;3.50;1.97;;;20.60;99.90;;;;;;6161442;23;20439;-79
2021/07/15 00:31:59;;;;;;;2.90;1.30;;;20.60;99.90;;;;;;6161674;23;20448;-78
2021/07/15 00:34:28;;;;;;;1.73;1.40;;;20.60;99.90;;;;;;6198192;23;20384;-79
2021/07/15 00:36:57;;;;;;;2.53;1.50;;;20.60;99.90;;;;;;6197489;23;20527;-78
2021/07/15 00:39:25;;;;;;;2.60;1.50;;;20.60;99.90;;;;;;6160679;23;20451;-78
2021/07/15 00:41:57;;;;;;;1.63;1.43;;;20.60;99.90;;;;;;6160584;23;20608;-79
2021/07/15 00:44:25;;;;;;;2.30;1.57;;;20.60;99.90;;;;;;6160847;23;20420;-78
2021/07/15 00:46:53;;;;;;;3.90;1.50;;;20.60;99.90;;;;;;6160792;23;20406;-79
2021/07/15 00:49:22;;;;;;;2.13;1.40;;;20.60;99.90;;;;;;6187277;23;20203;-78
2021/07/15 00:51:50;;;;;;;1.60;1.33;;;20.60;99.90;;;;;;6160781;23;20440;-79
2021/07/15 00:54:19;;;;;;;3.00;1.70;;;20.60;99.90;;;;;;6198345;23;20396;-79
2021/07/15 00:56:47;;;;;;;2.10;1.67;;;20.50;99.90;;;;;;6197789;23;20891;-79
2021/07/15 00:59:21;;;;;;;3.40;1.50;;;20.50;99.90;;;;;;6196907;23;20403;-78
2021/07/15 01:01:49;;;;;;;1.60;1.50;;;20.50;99.90;;;;;;6160713;23;20439;-78
2021/07/15 01:04:18;;;;;;;3.03;1.60;;;20.50;99.90;;;;;;6160669;23;20420;-78
2021/07/15 01:06:46;;;;;;;2.37;1.70;;;20.50;99.90;;;;;;6197625;23;20438;-78
2021/07/15 01:09:14;;;;;;;1.70;1.40;;;20.50;99.90;;;;;;6160638;23;20422;-79
2021/07/15 01:11:52;;;;;;;2.60;1.57;;;20.50;99.90;;;;;;6196956;23;20424;-79
2021/07/15 01:14:28;;;;;;;3.93;1.90;;;20.40;99.90;;;;;;6161598;23;20415;-78
2021/07/15 01:17:01;;;;;;;2.00;1.67;;;20.40;99.90;;;;;;6160055;23;20407;-78
2021/07/15 01:20:04;;;;;;;1.73;1.53;;;20.40;99.90;;;;;;6187123;23;20404;-79
2021/07/15 01:22:37;;;;;;;2.83;1.60;;;20.40;99.90;;;;;;6197365;23;20389;-78
2021/07/15 01:26:02;;;;;;;2.30;2.10;;;20.40;99.90;;;;;;6160815;23;20886;-78
2021/07/15 01:28:55;;;;;;;1.80;1.70;;;20.40;99.90;;;;;;6183863;23;20795;-78
2021/07/15 01:31:25;;;;;;;2.80;1.70;;;20.40;99.90;;;;;;6160069;23;20947;-78
2021/07/15 01:33:54;;;;;;;3.83;2.00;;;20.40;99.90;;;;;;6160050;23;20412;-78
2021/07/15 01:36:23;;;;;;;2.10;1.90;;;20.30;99.90;;;;;;6160368;23;20990;-78
2021/07/15 01:38:57;;;;;;;5.73;2.80;;;20.30;99.90;;;;;;6159004;23;20447;-78
2021/07/15 01:41:30;;;;;;;2.90;1.93;;;20.40;99.90;;;;;;6159943;23;20462;-78
2021/07/15 01:44:03;;;;;;;2.40;2.20;;;20.40;99.90;;;;;;6160608;23;20450;-79
2021/07/15 01:46:35;;;;;;;2.20;2.00;;;20.40;99.90;;;;;;6187172;23;20399;-78
2021/07/15 01:49:06;;;;;;;4.10;2.10;;;20.40;99.90;;;;;;6160268;23;20886;-79
2021/07/15 01:51:35;;;;;;;4.33;2.37;;;20.40;99.90;;;;;;6160427;23;20436;-78
2021/07/15 01:54:04;;;;;;;4.40;2.33;;;20.40;99.90;;;;;;6161896;23;20420;-79
2021/07/15 01:56:35;;;;;;;3.07;2.43;;;20.30;99.90;;;;;;6160564;23;20424;-78
2021/07/15 01:59:05;;;;;;;2.47;2.27;;;20.30;99.90;;;;;;6160681;23;20476;-78
2021/07/15 02:01:36;;;;;;;4.53;2.40;;;20.30;99.90;;;;;;6160519;23;20497;-78
2021/07/15 02:04:06;;;;;;;3.00;2.80;;;20.30;99.90;;;;;;6161110;23;20426;-78
2021/07/15 02:06:36;;;;;;;2.60;2.40;;;20.30;99.90;;;;;;6160362;23;20753;-78
2021/07/15 02:09:12;;;;;;;3.53;3.13;;;20.30;99.90;;;;;;6160250;23;20522;-78
2021/07/15 02:11:42;;;;;;;2.77;2.57;;;20.30;99.90;;;;;;6160369;23;20607;-78
2021/07/15 02:14:12;;;;;;;5.07;2.43;;;20.20;99.90;;;;;;6186467;23;20400;-79
2021/07/15 02:16:47;;;;;;;3.33;2.87;;;20.20;99.90;;;;;;6160621;23;20412;-78
2021/07/15 02:19:17;;;;;;;3.33;2.97;;;20.20;99.90;;;;;;6159979;23;20466;-79
2021/07/15 02:21:46;;;;;;;3.70;3.40;;;20.20;99.90;;;;;;6159880;23;20434;-77
2021/07/15 02:24:18;;;;;;;3.47;3.17;;;20.10;99.90;;;;;;6160127;23;20423;-78
2021/07/15 02:26:48;;;;;;;3.25;2.80;;;20.10;99.90;;;;;;6159695;23;20742;-79
2021/07/15 02:29:20;;;;;;;4.67;3.20;;;20.10;99.90;;;;;;6195896;23;20650;-78
2021/07/15 02:31:54;;;;;;;6.03;3.60;;;20.10;99.90;;;;;;6196003;23;20447;-78
2021/07/15 02:34:27;;;;;;;3.73;2.77;;;20.00;99.90;;;;;;6186448;23;20398;-78
2021/07/15 02:36:57;;;;;;;3.80;3.40;;;20.00;99.90;;;;;;6195428;23;20754;-78
2021/07/15 02:39:26;;;;;;;3.53;3.23;;;20.10;99.90;;;;;;6159807;23;20263;-78
2021/07/15 02:41:55;;;;;;;4.93;3.20;;;20.10;99.90;;;;;;6186590;23;20883;-79
2021/07/15 02:44:24;;;;;;;3.77;3.47;;;20.00;99.90;;;;;;6161785;23;20784;-78
2021/07/15 02:46:56;;;;;;;2.87;2.40;;;20.00;99.90;;;;;;6162218;23;20411;-78
2021/07/15 02:49:24;;;;;;;5.13;3.63;;;19.90;99.90;;;;;;6188469;23;20424;-78
2021/07/15 02:51:56;;;;;;;2.90;2.70;;;19.90;99.90;;;;;;6161828;23;20450;-78
2021/07/15 02:54:25;;;;;;;7.87;3.80;;;19.90;99.90;;;;;;6198064;23;20411;-79
2021/07/15 02:57:02;;;;;;;4.13;3.73;;;19.80;99.90;;;;;;6187890;23;20961;-79
2021/07/15 02:59:35;;;;;;;3.07;2.87;;;19.80;99.90;;;;;;6161429;23;20431;-79
2021/07/15 03:02:15;;;;;;;3.60;3.30;;;19.80;99.90;;;;;;6161575;23;20895;-78
2021/07/15 03:04:49;;;;;;;8.87;3.70;;;19.80;99.90;;;;;;6161762;23;20416;-78
2021/07/15 03:07:21;;;;;;;4.67;3.10;;;19.80;99.90;;;;;;6161008;23;20443;-78
2021/07/15 03:09:52;;;;;;;5.97;2.83;;;19.80;99.90;;;;;;6197903;23;20514;-78
2021/07/15 03:12:23;;;;;;;3.87;3.40;;;19.70;99.90;;;;;;6187927;23;20743;-78
2021/07/15 03:14:54;;;;;;;4.33;3.93;;;19.70;99.90;;;;;;6161150;23;20412;-78
2021/07/15 03:17:27;;;;;;;4.50;3.83;;;19.70;99.90;;;;;;6161579;23;20404;-78
2021/07/15 03:20:00;;;;;;;3.85;3.05;;;19.70;99.90;;;;;;6161639;23;20311;-78
2021/07/15 03:22:29;;;;;;;7.77;3.77;;;19.70;99.90;;;;;;6161640;23;20328;-79
2021/07/15 03:25:04;;;;;;;6.70;3.87;;;19.70;99.90;;;;;;6198089;23;20755;-79
2021/07/15 03:27:34;;;;;;;5.40;3.70;;;19.70;99.90;;;;;;6161579;23;20416;-78
2021/07/15 03:30:07;;;;;;;6.20;4.00;;;19.70;99.90;;;;;;6160924;23;20803;-78
2021/07/15 03:32:39;;;;;;;4.03;3.63;;;19.70;99.90;;;;;;6161561;23;20405;-79
2021/07/15 03:35:09;;;;;;;5.73;3.83;;;19.70;99.90;;;;;;6161312;23;20439;-78
2021/07/15 03:37:38;;;;;;;5.60;3.80;;;19.70;99.90;;;;;;6161500;23;20451;-79
2021/07/15 03:40:10;;;;;;;5.87;3.77;;;19.70;99.90;;;;;;6161455;23;20502;-79
2021/07/15 03:42:40;;;;;;;7.10;3.80;;;19.70;99.90;;;;;;6197646;23;20412;-79
2021/07/15 03:45:51;;;;;;;;;;;;;;;;;;;;;
2021/07/15 03:49:07;;;;;;;5.33;3.27;;;19.60;99.90;;;;;;6069060;23;20419;-78
2021/07/15 03:51:36;;;;;;;6.70;4.30;;;19.60;99.90;;;;;;6148544;23;20462;-79
2021/07/15 03:54:06;;;;;;;4.67;3.90;;;19.60;99.90;;;;;;6160750;23;20423;-79
2021/07/15 03:56:37;;;;;;;3.80;3.40;;;19.60;99.90;;;;;;6160542;23;20431;-78
2021/07/15 03:59:08;;;;;;;4.57;3.23;;;19.60;99.90;;;;;;6161422;23;20435;-78
2021/07/15 04:01:36;;;;;;;4.83;3.60;;;19.50;99.90;;;;;;6197394;23;20902;-79
2021/07/15 04:04:42;;;;;;;13.63;4.90;;;19.50;99.90;;;;;;6160657;23;20452;-79
2021/07/15 04:12:01;;;;;;;5.53;4.03;;;19.50;99.90;;;;;;6157861;23;20511;-78
2021/07/15 04:15:35;;;;;;;7.80;4.80;;;19.50;99.90;;;;;;6185519;23;20506;-79
2021/07/15 04:18:28;;;;;;;5.90;3.80;;;19.60;99.90;;;;;;6185255;23;20235;-78
2021/07/15 04:20:59;;;;;;;8.93;4.80;;;19.70;99.90;;;;;;6160300;23;20497;-79
2021/07/15 04:30:29;;;;;;;9.03;4.50;;;19.80;99.90;;;;;;6186062;23;20438;-79
2021/07/15 04:50:42;;;;;;;6.40;4.20;;;19.80;99.90;;;;;;5720231;22;10280344;-77
2021/07/15 04:53:15;;;;;;;6.17;4.30;;;19.80;99.90;;;;;;6134494;23;20421;-78
2021/07/15 04:55:44;;;;;;;8.90;4.30;;;19.80;99.90;;;;;;6134081;23;20417;-77
2021/07/15 04:58:13;;;;;;;6.77;4.00;;;19.80;99.90;;;;;;6133963;23;20475;-77
2021/07/15 05:00:41;;;;;;;5.10;4.17;;;19.80;99.90;;;;;;6145300;23;20455;-77
2021/07/15 05:03:30;;;;;;;7.17;5.23;;;19.90;99.90;;;;;;6133334;23;20443;-76
2021/07/15 05:06:00;;;;;;;11.13;5.07;;;19.90;99.90;;;;;;6133318;23;20417;-76
2021/07/15 05:08:30;;;;;;;5.93;4.57;;;19.90;99.90;;;;;;6130505;23;20425;-76
2021/07/15 05:10:58;;;;;;;7.00;4.90;;;20.00;99.90;;;;;;6131300;23;20245;-76
2021/07/15 05:13:27;;;;;;;7.13;5.10;;;20.00;99.90;;;;;;6131105;23;20427;-76
2021/07/15 05:15:55;;;;;;;12.07;3.97;;;20.00;99.90;;;;;;6132932;23;20421;-76
2021/07/15 05:18:23;;;;;;;6.20;5.40;;;20.00;99.90;;;;;;6132823;23;20268;-76
2021/07/15 05:20:52;;;;;;;6.43;5.10;;;20.00;99.90;;;;;;6134660;23;20429;-76
2021/07/15 05:23:21;;;;;;;7.97;4.53;;;20.00;99.90;;;;;;6132842;23;20432;-77
2021/07/15 05:25:51;;;;;;;6.40;5.23;;;20.00;99.90;;;;;;6134628;23;20405;-76
2021/07/15 05:28:19;;;;;;;5.83;5.30;;;20.00;99.90;;;;;;6134979;23;20413;-76
2021/07/15 05:30:52;;;;;;;5.93;5.33;;;20.00;99.90;;;;;;6144350;23;20500;-76
2021/07/15 05:33:20;;;;;;;7.90;5.77;;;20.00;99.90;;;;;;6132617;23;20421;-76
2021/07/15 09:19:08;;;;;;;8.07;7.00;;;24.90;99.90;;;;;;5803001;24;20800;-75
2021/07/15 09:21:39;;;;;;;8.82;7.50;;;24.80;99.90;;;;;;5911688;24;20799;-75
2021/07/15 09:24:29;;;;;;;10.07;6.63;;;24.90;99.90;;;;;;5957214;24;20178;-75
2021/07/15 09:27:00;;;;;;;8.03;6.87;;;24.90;99.90;;;;;;5993935;24;20425;-75
2021/07/15 09:29:37;;;;;;;9.30;7.43;;;24.80;99.90;;;;;;5963836;24;20502;-75
2021/07/15 09:32:07;;;;;;;7.90;7.10;;;24.80;99.90;;;;;;5959243;24;20548;-75
2021/07/15 09:34:38;;;;;;;8.30;7.30;;;24.90;99.90;;;;;;5992362;24;20410;-75
2021/07/15 09:37:11;;;;;;;8.33;7.10;;;24.80;99.90;;;;;;5992045;24;20390;-75
2021/07/15 09:39:45;;;;;;;7.47;6.67;;;24.80;99.90;;;;;;5959255;24;20513;-76
2021/07/15 09:42:19;;;;;;;10.90;8.10;;;24.90;99.90;;;;;;5958674;24;20973;-76
2021/07/15 09:44:49;;;;;;;8.03;7.23;;;24.90;99.90;;;;;;5959204;24;20986;-76
2021/07/15 09:47:39;;;;;;;10.63;6.80;;;24.90;99.90;;;;;;5958774;24;20419;-76
2021/07/15 09:50:27;;;;;;;8.40;7.60;;;24.90;99.90;;;;;;6053753;23;20434;-75
2021/07/15 09:53:21;;;;;;;7.27;6.57;;;25.00;99.90;;;;;;6079992;23;20873;-76
2021/07/15 09:55:59;;;;;;;8.40;6.40;;;25.00;99.90;;;;;;6044152;23;20758;-75
2021/07/15 09:58:32;;;;;;;7.13;6.43;;;25.10;99.90;;;;;;6079245;23;20834;-76
2021/07/15 10:01:06;;;;;;;8.60;7.57;;;25.10;99.90;;;;;;6069676;23;20458;-75
2021/07/15 10:03:40;;;;;;;8.27;6.50;;;25.20;99.90;;;;;;6079218;23;20459;-76
2021/07/15 10:06:11;;;;;;;9.87;8.37;;;25.20;99.90;;;;;;6079903;23;20392;-75
2021/07/15 10:08:42;;;;;;;9.27;7.30;;;25.20;99.90;;;;;;6079059;23;20392;-76
2021/07/15 10:11:19;;;;;;;8.20;7.40;;;25.20;99.90;;;;;;6044007;23;20538;-75
2021/07/15 10:13:48;;;;;;;7.50;6.70;;;25.10;99.90;;;;;;6078105;23;20418;-75
2021/07/15 10:16:17;;;;;;;11.67;8.97;;;25.20;99.90;;;;;;6078997;23;20614;-75
2021/07/15 10:18:50;;;;;;;12.00;10.43;;;25.20;99.90;;;;;;6043745;23;20426;-75
2021/07/15 10:21:26;;;;;;;11.37;10.30;;;25.20;99.90;;;;;;6078843;23;20423;-76
2021/07/15 10:23:55;;;;;;;9.90;8.70;;;25.10;99.90;;;;;;6079358;23;20443;-75
2021/07/15 10:26:33;;;;;;;18.37;10.70;;;25.10;99.90;;;;;;6043754;23;20415;-75
2021/07/15 10:29:02;;;;;;;11.60;10.50;;;25.10;99.90;;;;;;6079028;23;20770;-75
2021/07/15 10:31:31;;;;;;;16.47;11.33;;;25.20;99.90;;;;;;6051196;23;20441;-75
2021/07/15 10:34:00;;;;;;;11.50;10.37;;;25.20;99.90;;;;;;6078801;23;20412;-75
2021/07/15 10:36:34;;;;;;;11.47;10.17;;;25.20;99.90;;;;;;6046157;23;20471;-75
2021/07/15 10:39:03;;;;;;;10.80;9.80;;;25.20;99.90;;;;;;6045756;23;20417;-75
2021/07/15 10:41:32;;;;;;;12.40;10.37;;;25.10;99.90;;;;;;6043565;23;20471;-75
2021/07/15 10:44:00;;;;;;;11.00;9.90;;;25.10;99.90;;;;;;6069364;23;20433;-75
2021/07/15 10:46:34;;;;;;;11.57;10.20;;;25.00;99.90;;;;;;6078757;23;20226;-75
2021/07/15 10:49:40;;;;;;;13.70;11.70;;;25.00;99.90;;;;;;6045842;23;20423;-75
2021/07/15 10:52:13;;;;;;;13.43;12.13;;;25.00;99.90;;;;;;6082454;23;20400;-75
2021/07/15 10:54:45;;;;;;;13.20;11.90;;;25.00;99.90;;;;;;6069023;23;20599;-75
2021/07/15 10:57:20;;;;;;;13.63;12.43;;;25.00;99.90;;;;;;6073288;23;20428;-75
2021/07/15 10:59:48;;;;;;;13.43;12.03;;;25.00;99.90;;;;;;6078643;23;20510;-75
2021/07/15 11:02:22;;;;;;;13.67;12.47;;;25.00;99.90;;;;;;6048087;23;20414;-76
2021/07/15 11:04:51;;;;;;;15.97;14.47;;;25.10;99.90;;;;;;6044756;23;20436;-75
2021/07/15 11:07:23;;;;;;;16.50;15.03;;;25.10;99.90;;;;;;6043890;23;20766;-75
2021/07/15 11:09:54;;;;;;;17.40;14.33;;;25.20;99.90;;;;;;6051576;23;20435;-75
2021/07/15 11:12:36;;;;;;;15.80;14.27;;;25.20;99.90;;;;;;6043533;23;20871;-75
2021/07/15 11:15:11;;;;;;;16.83;15.30;;;25.30;99.90;;;;;;6082059;23;20408;-76
2021/07/15 11:17:47;;;;;;;18.30;16.60;;;25.30;99.90;;;;;;6087880;23;20405;-76
2021/07/15 11:20:19;;;;;;;20.80;18.70;;;25.30;99.90;;;;;;6078247;23;20449;-75
2021/07/15 11:22:53;;;;;;;19.73;17.63;;;25.30;99.90;;;;;;6086232;23;20387;-75
2021/07/15 11:25:39;;;;;;;19.83;17.92;;;25.40;99.90;;;;;;6085691;23;20492;-75
2021/07/15 11:28:21;;;;;;;17.50;15.80;;;25.50;99.90;;;;;;6080711;23;20231;-75
2021/07/15 11:30:57;;;;;;;16.13;14.50;;;25.50;99.90;;;;;;6086740;23;20419;-76
2021/07/15 11:33:39;;;;;;;18.47;16.57;;;25.50;99.90;;;;;;6081667;23;20387;-75
2021/07/15 11:36:31;;;;;;;19.90;17.80;;;25.60;99.90;;;;;;6085462;23;20454;-75
2021/07/15 11:39:05;;;;;;;19.23;17.30;;;25.60;99.90;;;;;;6078406;23;20420;-76
2021/07/15 11:41:46;;;;;;;19.90;17.80;;;25.60;99.90;;;;;;6046228;23;20451;-75
2021/07/15 11:44:16;;;;;;;19.47;17.60;;;25.60;99.90;;;;;;6079248;23;20416;-75
2021/07/15 11:46:45;;;;;;;20.80;18.90;;;25.60;99.90;;;;;;6078881;23;20400;-75
2021/07/15 11:49:22;;;;;;;22.53;20.30;;;25.60;99.90;;;;;;6085312;23;20440;-75
2021/07/15 11:52:01;;;;;;;23.10;20.90;;;25.60;99.90;;;;;;6078238;23;20442;-76
2021/07/15 11:54:46;;;;;;;23.97;21.40;;;25.60;99.90;;;;;;6080260;23;20412;-75
2021/07/15 11:57:28;;;;;;;24.30;21.80;;;25.50;99.90;;;;;;6080572;23;20392;-75
2021/07/15 12:00:12;;;;;;;24.13;21.83;;;25.50;99.90;;;;;;6078176;23;20748;-76
2021/07/15 12:03:00;;;;;;;23.37;21.07;;;25.50;99.90;;;;;;6083801;23;20876;-75
2021/07/15 12:05:32;;;;;;;26.05;23.45;;;25.50;99.90;;;;;;6082569;23;20405;-75
2021/07/15 12:08:11;;;;;;;24.50;22.00;;;25.50;99.90;;;;;;6083472;23;20164;-75
2021/07/15 12:10:46;;;;;;;25.87;23.23;;;25.60;99.90;;;;;;6084114;23;20423;-75
2021/07/15 12:13:16;;;;;;;25.70;23.00;;;25.70;99.90;;;;;;6079944;23;20468;-76
2021/07/15 12:15:47;;;;;;;26.17;23.67;;;25.80;99.90;;;;;;6085004;23;20161;-75
2021/07/15 12:18:17;;;;;;;25.73;23.00;;;25.90;99.90;;;;;;6084538;23;20407;-76
2021/07/15 12:20:48;;;;;;;26.93;24.10;;;25.90;99.90;;;;;;6050449;23;20447;-76
2021/07/15 12:23:19;;;;;;;27.67;24.73;;;26.00;99.90;;;;;;6083889;23;20436;-76
2021/07/15 12:25:51;;;;;;;25.70;22.93;;;26.10;99.90;;;;;;6087409;23;20917;-76
2021/07/15 12:28:25;;;;;;;26.87;24.20;;;26.00;99.90;;;;;;6085850;23;20380;-75
2021/07/15 12:30:57;;;;;;;25.03;22.03;;;26.10;99.90;;;;;;6048160;23;20440;-76
2021/07/15 12:33:35;;;;;;;23.77;21.37;;;26.10;99.90;;;;;;6083356;23;20372;-75
2021/07/15 12:36:09;;;;;;;25.80;23.10;;;26.20;99.90;;;;;;6079421;23;20467;-75
2021/07/15 12:38:38;;;;;;;26.47;23.67;;;26.20;99.90;;;;;;6042784;23;20479;-74
2021/07/15 12:41:11;;;;;;;24.57;21.93;;;26.20;99.90;;;;;;6077896;23;21001;-75
2021/07/15 12:43:44;;;;;;;28.40;24.00;;;26.30;99.90;;;;;;6042722;23;20432;-75
2021/07/15 12:46:14;;;;;;;25.90;23.30;;;26.40;99.90;;;;;;6068621;23;20400;-75
2021/07/15 12:48:45;;;;;;;25.80;23.30;;;26.40;99.90;;;;;;6042732;23;20420;-75
2021/07/15 12:51:14;;;;;;;23.15;20.95;;;26.40;99.90;;;;;;6066901;23;20440;-75
2021/07/15 12:53:45;;;;;;;25.00;22.53;;;26.50;99.90;;;;;;6077780;23;20262;-76
2021/07/15 12:56:20;;;;;;;22.80;20.60;;;26.60;99.90;;;;;;6042748;23;20470;-75
2021/07/15 12:59:06;;;;;;;27.23;20.37;;;26.60;99.90;;;;;;6077786;23;20475;-75
2021/07/15 13:01:37;;;;;;;20.70;18.70;;;26.70;99.90;;;;;;6078390;23;20413;-75
2021/07/15 13:04:08;;;;;;;22.40;20.10;;;26.80;99.90;;;;;;6080930;23;20203;-75
2021/07/15 13:06:39;;;;;;;21.00;18.90;;;26.80;99.90;;;;;;6086244;23;20412;-76
2021/07/15 13:09:20;;;;;;;21.23;18.93;;;26.80;99.90;;;;;;6047248;23;20410;-75
2021/07/15 13:14:43;;;;;;;17.50;15.73;;;26.80;99.90;;;;;;6044544;23;20451;-75
2021/07/15 13:17:13;;;;;;;17.00;15.20;;;26.90;99.90;;;;;;6081067;23;20459;-75
2021/07/15 13:19:43;;;;;;;19.63;17.60;;;26.90;99.90;;;;;;6083628;23;20427;-76
2021/07/15 13:22:13;;;;;;;18.77;17.03;;;26.90;99.90;;;;;;6044259;23;20449;-76
2021/07/15 13:24:46;;;;;;;17.40;15.70;;;26.90;99.90;;;;;;6083111;23;20387;-75
2021/07/15 13:27:18;;;;;;;19.83;17.90;;;27.00;99.90;;;;;;6045491;23;20458;-75
2021/07/15 13:29:50;;;;;;;18.87;17.07;;;27.00;99.90;;;;;;6080401;23;20372;-75
2021/07/15 13:32:20;;;;;;;19.23;17.33;;;27.10;99.90;;;;;;6084385;23;20426;-76
2021/07/15 13:34:50;;;;;;;19.37;17.47;;;27.10;99.90;;;;;;6079442;23;20482;-75
2021/07/15 13:37:28;;;;;;;18.53;16.93;;;27.00;99.90;;;;;;6086732;23;20403;-75
2021/07/15 13:39:58;;;;;;;18.50;16.60;;;27.00;99.90;;;;;;6080287;23;20415;-76
2021/07/15 13:42:33;;;;;;;20.20;18.23;;;27.00;99.90;;;;;;6079294;23;20844;-76
2021/07/15 13:45:04;;;;;;;17.90;16.20;;;27.10;99.90;;;;;;6083777;23;20457;-75
2021/07/15 13:47:36;;;;;;;19.50;17.60;;;27.10;99.90;;;;;;6079748;23;20610;-75
2021/07/15 13:50:07;;;;;;;19.47;17.47;;;27.20;99.90;;;;;;6082960;23;20423;-76
2021/07/15 13:52:39;;;;;;;21.13;19.20;;;27.20;99.90;;;;;;6048798;23;20494;-76
2021/07/15 13:55:09;;;;;;;18.80;16.93;;;27.20;99.90;;;;;;6044062;23;20463;-75
2021/07/15 13:57:42;;;;;;;22.57;20.13;;;27.20;99.90;;;;;;6052360;23;20831;-75
2021/07/15 14:00:13;;;;;;;21.73;19.53;;;27.20;99.90;;;;;;6048945;23;20482;-76
2021/07/15 14:02:43;;;;;;;20.43;18.33;;;27.20;99.90;;;;;;6071739;23;20431;-76
2021/07/15 14:05:12;;;;;;;20.80;18.60;;;27.20;99.90;;;;;;6085334;23;20391;-75
2021/07/15 14:07:41;;;;;;;19.13;17.23;;;27.10;99.90;;;;;;6081181;23;20410;-75
2021/07/15 14:10:11;;;;;;;20.93;18.70;;;27.10;99.90;;;;;;6050146;23;20443;-75
2021/07/15 14:12:42;;;;;;;22.47;20.17;;;27.10;99.90;;;;;;6048459;23;20430;-75
2021/07/15 14:15:18;;;;;;;24.03;19.83;;;27.00;99.90;;;;;;6045564;23;20418;-74
2021/07/15 14:18:06;;;;;;;19.60;17.60;;;27.00;99.90;;;;;;6080677;23;20422;-75
2021/07/15 14:20:36;;;;;;;19.70;17.10;;;27.00;99.90;;;;;;6080474;23;20856;-74
2021/07/15 14:23:09;;;;;;;20.00;16.30;;;27.00;99.90;;;;;;6045354;23;20531;-74
2021/07/15 14:25:39;;;;;;;19.70;16.40;;;27.00;99.90;;;;;;6079612;23;20384;-74
2021/07/15 14:28:08;;;;;;;18.63;15.87;;;27.00;99.90;;;;;;6043840;23;20450;-74
2021/07/15 14:30:37;;;;;;;21.03;16.73;;;26.90;99.90;;;;;;6069576;23;20505;-74
2021/07/15 14:33:07;;;;;;;18.20;16.30;;;26.90;99.90;;;;;;6078718;23;20396;-74
2021/07/15 14:35:37;;;;;;;22.80;16.37;;;26.90;99.90;;;;;;6051237;23;20427;-74
2021/07/15 14:38:10;;;;;;;23.63;16.70;;;26.80;99.90;;;;;;6050347;23;20419;-74
2021/07/15 14:40:39;;;;;;;19.17;15.80;;;26.70;99.90;;;;;;6084083;23;20982;-74
2021/07/15 14:43:09;;;;;;;20.20;16.30;;;26.60;99.90;;;;;;6044447;23;20534;-74
2021/07/15 14:45:39;;;;;;;16.93;15.10;;;26.50;99.90;;;;;;6082435;23;20431;-74
2021/07/15 14:48:08;;;;;;;19.70;16.27;;;26.40;99.90;;;;;;6084635;23;20416;-75
2021/07/15 14:50:37;;;;;;;19.50;17.37;;;26.40;99.90;;;;;;6080460;23;20455;-75
2021/07/15 14:53:22;;;;;;;17.17;15.38;;;26.40;99.90;;;;;;6073039;23;20414;-74
2021/07/15 14:55:50;;;;;;;16.13;14.63;;;26.50;99.90;;;;;;6085043;23;20167;-75
2021/07/15 14:58:21;;;;;;;15.50;13.90;;;26.40;99.90;;;;;;6045080;23;20507;-74
2021/07/15 15:00:50;;;;;;;16.60;14.13;;;26.30;99.90;;;;;;6046689;23;20422;-74
2021/07/15 15:03:20;;;;;;;13.73;12.33;;;26.20;99.90;;;;;;6051939;23;20191;-74
2021/07/15 15:05:48;;;;;;;17.17;13.30;;;26.00;99.90;;;;;;6050631;23;20452;-75
2021/07/15 15:08:17;;;;;;;16.53;13.13;;;25.80;99.90;;;;;;6078763;23;20403;-77
2021/07/15 15:10:47;;;;;;;14.73;13.30;;;25.70;99.90;;;;;;6044649;23;20526;-75
2021/07/15 15:13:21;;;;;;;18.63;14.20;;;25.50;99.90;;;;;;6046085;23;20435;-75
2021/07/15 15:15:49;;;;;;;18.43;14.63;;;25.30;99.90;;;;;;6043699;23;20439;-74
2021/07/15 15:18:18;;;;;;;20.63;13.73;;;25.30;99.90;;;;;;6081096;23;20400;-74
2021/07/15 15:20:49;;;;;;;20.80;14.77;;;25.20;99.90;;;;;;6078332;23;20455;-74
2021/07/15 15:23:17;;;;;;;18.27;15.73;;;25.20;99.90;;;;;;6077908;23;20808;-74
2021/07/15 15:25:45;;;;;;;19.70;14.40;;;25.20;99.90;;;;;;6044745;23;20414;-74
2021/07/15 15:28:14;;;;;;;20.27;14.60;;;25.20;99.90;;;;;;6078489;23;20409;-74
2021/07/15 15:30:45;;;;;;;16.30;14.60;;;25.20;99.90;;;;;;6081703;23;20187;-75
2021/07/15 15:33:13;;;;;;;22.40;15.93;;;25.20;99.90;;;;;;6070739;23;20431;-75
2021/07/15 15:35:41;;;;;;;20.27;15.40;;;25.20;99.90;;;;;;6068562;23;20486;-75
2021/07/15 15:38:09;;;;;;;17.97;16.07;;;25.10;99.90;;;;;;6080977;23;20798;-75
2021/07/15 15:40:38;;;;;;;17.00;15.27;;;24.90;99.90;;;;;;6043021;23;20529;-75
2021/07/15 15:43:06;;;;;;;17.00;15.40;;;24.70;99.90;;;;;;6078457;23;20431;-75
2021/07/15 15:45:35;;;;;;;16.83;15.00;;;24.60;99.90;;;;;;6084712;23;20716;-75
2021/07/15 15:48:05;;;;;;;18.20;14.80;;;24.40;99.90;;;;;;6078505;23;20404;-75
2021/07/15 15:50:33;;;;;;;16.50;14.77;;;24.30;99.90;;;;;;6079802;23;20514;-74
2021/07/15 15:53:03;;;;;;;17.17;15.00;;;24.10;99.90;;;;;;6081497;23;20407;-74
2021/07/15 15:55:37;;;;;;;16.37;14.83;;;24.00;99.90;;;;;;6044070;23;20423;-74
2021/07/15 15:58:05;;;;;;;15.33;13.67;;;23.80;99.90;;;;;;6078766;23;20404;-75
2021/07/15 16:00:34;;;;;;;17.27;14.90;;;23.70;99.90;;;;;;6046475;23;20439;-74
2021/07/15 16:03:04;;;;;;;16.17;14.63;;;23.60;99.90;;;;;;6080490;23;20431;-78
2021/07/15 16:05:33;;;;;;;17.90;16.00;;;23.50;99.90;;;;;;6081134;23;20401;-77
2021/07/15 16:08:01;;;;;;;19.30;15.20;;;23.50;99.90;;;;;;6052241;23;20236;-77
2021/07/15 16:10:31;;;;;;;15.37;13.80;;;23.40;99.90;;;;;;6074232;23;20502;-77
2021/07/15 16:13:00;;;;;;;16.60;14.50;;;23.30;99.90;;;;;;6053012;23;20433;-78
2021/07/15 16:15:29;;;;;;;15.03;13.40;;;23.20;99.90;;;;;;6047854;23;20511;-77
2021/07/15 16:17:58;;;;;;;14.27;12.93;;;23.10;99.90;;;;;;6080354;23;20650;-77
2021/07/15 16:20:33;;;;;;;16.20;14.50;;;22.90;99.90;;;;;;6042136;23;20453;-78
2021/07/15 16:23:06;;;;;;;13.50;12.10;;;22.80;99.90;;;;;;6078147;23;20756;-77
2021/07/15 16:25:35;;;;;;;13.27;11.70;;;22.70;99.90;;;;;;6076655;23;20567;-77
2021/07/15 16:28:06;;;;;;;14.57;12.57;;;22.70;99.90;;;;;;6077181;23;20748;-77
2021/07/15 16:30:37;;;;;;;15.97;12.40;;;22.60;99.90;;;;;;6049956;23;20435;-77
2021/07/15 16:33:06;;;;;;;14.03;12.50;;;22.60;99.90;;;;;;6043122;23;20412;-78
2021/07/15 16:35:36;;;;;;;18.77;12.90;;;22.50;99.90;;;;;;6077687;23;20400;-77
2021/07/15 16:38:05;;;;;;;14.07;11.20;;;22.50;99.90;;;;;;6052409;23;20475;-77
2021/07/15 16:40:35;;;;;;;15.17;11.50;;;22.50;99.90;;;;;;6081947;23;20446;-76
2021/07/15 16:43:04;;;;;;;16.27;13.57;;;22.50;99.90;;;;;;6079156;23;20455;-77
2021/07/15 16:45:33;;;;;;;12.77;11.20;;;22.50;99.90;;;;;;6083138;23;20183;-76
2021/07/15 16:48:01;;;;;;;15.10;11.10;;;22.50;99.90;;;;;;6080280;23;20499;-76
2021/07/15 16:50:30;;;;;;;16.35;11.30;;;22.50;99.90;;;;;;6084985;23;20944;-76
2021/07/15 16:53:04;;;;;;;11.20;10.10;;;22.50;99.90;;;;;;6078980;23;20606;-76
2021/07/15 16:55:34;;;;;;;10.80;9.70;;;22.50;99.90;;;;;;6077911;23;20780;-76
2021/07/15 16:58:07;;;;;;;13.43;9.87;;;22.50;99.90;;;;;;6069724;23;20763;-76
2021/07/15 17:00:36;;;;;;;12.07;9.47;;;22.40;99.90;;;;;;6077654;23;20424;-76
2021/07/15 17:03:12;;;;;;;15.67;10.97;;;22.40;99.90;;;;;;6069617;23;20422;-76
2021/07/15 17:05:41;;;;;;;13.50;8.93;;;22.40;99.90;;;;;;6068780;23;20782;-76
2021/07/15 17:08:11;;;;;;;14.77;10.17;;;22.40;99.90;;;;;;6078219;23;20408;-76
2021/07/15 17:10:39;;;;;;;14.87;10.43;;;22.30;99.90;;;;;;6069200;23;20424;-77
2021/07/15 17:13:07;;;;;;;23.30;10.63;;;22.30;99.90;;;;;;6077855;23;20495;-76
2021/07/15 17:15:36;;;;;;;16.83;10.27;;;22.30;99.90;;;;;;6042407;23;20879;-76
2021/07/15 17:18:09;;;;;;;15.47;9.53;;;22.30;99.90;;;;;;6077888;23;20419;-76
2021/07/15 17:20:38;;;;;;;12.27;8.83;;;22.20;99.90;;;;;;6077521;23;20451;-76
2021/07/15 17:23:07;;;;;;;18.93;9.53;;;22.20;99.90;;;;;;6077694;23;20435;-75